createdAt,value
2019-01-18T00:02:03.199Z,22.77
2019-01-18T00:04:31.500Z,23.80
2019-01-18T00:06:59.794Z,18.57
2019-01-18T00:09:28.153Z,20.30
2019-01-18T00:11:56.708Z,18.53
2019-01-18T00:14:25.101Z,19.67
2019-01-18T00:16:53.440Z,20.70
2019-01-18T00:19:21.703Z,18.17
2019-01-18T00:21:50.454Z,21.23
2019-01-18T00:24:18.894Z,24.23
2019-01-18T00:26:47.165Z,21.67
2019-01-18T00:29:15.485Z,22.83
2019-01-18T00:31:44.422Z,19.33
2019-01-18T00:34:12.780Z,19.20
2019-01-18T00:36:41.069Z,23.97
2019-01-18T00:39:09.337Z,20.07
2019-01-18T00:41:37.710Z,21.47
2019-01-18T00:44:05.983Z,22.70
2019-01-18T00:46:34.476Z,15.10
2019-01-18T00:49:02.893Z,15.80
2019-01-18T00:51:31.641Z,16.43
2019-01-18T00:53:59.980Z,23.93
2019-01-18T00:56:28.628Z,22.03
2019-01-18T00:58:56.913Z,18.87
2019-01-18T01:01:25.224Z,17.90
2019-01-18T01:03:53.495Z,22.90
2019-01-18T01:06:21.760Z,17.97
2019-01-18T01:08:50.069Z,24.57
2019-01-18T01:11:18.377Z,17.57
2019-01-18T01:13:46.693Z,19.10
2019-01-18T01:16:15.037Z,19.17
2019-01-18T01:18:43.326Z,22.27
2019-01-18T01:21:11.665Z,20.10
2019-01-18T01:23:40.420Z,21.30
2019-01-18T01:26:08.805Z,20.47
2019-01-18T01:28:37.100Z,19.37
2019-01-18T01:31:05.542Z,26.07
2019-01-18T01:33:33.939Z,22.70
2019-01-18T01:36:02.285Z,19.57
2019-01-18T01:38:30.648Z,21.63
2019-01-18T01:40:58.918Z,24.03
2019-01-18T01:43:27.218Z,27.13
2019-01-18T01:45:55.545Z,27.33
2019-01-18T01:48:23.832Z,24.33
2019-01-18T01:50:52.110Z,23.07
2019-01-18T01:53:20.401Z,24.10
2019-01-18T01:55:48.743Z,22.57
2019-01-18T01:58:17.338Z,22.93
2019-01-18T02:00:45.992Z,25.13
2019-01-18T02:03:14.258Z,28.60
2019-01-18T02:05:42.549Z,21.77
2019-01-18T02:08:10.814Z,23.87
2019-01-18T02:10:39.116Z,27.83
2019-01-18T02:13:07.402Z,27.20
2019-01-18T02:15:35.769Z,20.57
2019-01-18T02:18:04.146Z,29.43
2019-01-18T02:20:32.429Z,28.60
2019-01-18T02:23:00.689Z,22.70
2019-01-18T02:25:28.983Z,22.80
2019-01-18T02:27:57.246Z,28.33
2019-01-18T02:30:26.310Z,27.63
2019-01-18T02:32:54.660Z,28.27
2019-01-18T02:35:23.128Z,26.73
2019-01-18T02:37:51.541Z,23.67
2019-01-18T02:40:19.828Z,27.17
2019-01-18T02:42:48.214Z,23.57
2019-01-18T02:45:18.078Z,27.70
2019-01-18T02:47:46.478Z,27.90
2019-01-18T02:50:14.956Z,27.27
2019-01-18T02:52:43.239Z,31.63
2019-01-18T02:55:11.700Z,25.37
2019-01-18T02:57:39.990Z,29.03
2019-01-18T03:00:09.898Z,35.93
2019-01-18T03:02:38.324Z,38.53
2019-01-18T03:05:07.558Z,28.83
2019-01-18T03:07:35.854Z,31.93
2019-01-18T03:10:08.753Z,37.23
2019-01-18T03:12:37.034Z,27.13
2019-01-18T03:15:05.873Z,31.17
2019-01-18T03:17:34.237Z,28.70
2019-01-18T03:20:03.500Z,34.27
2019-01-18T03:22:32.156Z,36.30
2019-01-18T03:25:00.439Z,34.90
2019-01-18T03:27:28.718Z,31.27
2019-01-18T03:29:56.985Z,31.53
2019-01-18T03:32:25.289Z,30.23
2019-01-18T03:34:53.626Z,35.13
2019-01-18T03:37:21.912Z,28.83
2019-01-18T03:39:50.211Z,29.60
2019-01-18T03:42:18.478Z,27.40
2019-01-18T03:44:46.769Z,31.43
2019-01-18T03:47:15.034Z,32.27
2019-01-18T03:49:43.328Z,30.10
2019-01-18T03:52:11.666Z,36.57
2019-01-18T03:54:39.955Z,38.43
2019-01-18T03:57:08.229Z,29.53
2019-01-18T03:59:36.527Z,35.10
2019-01-18T04:02:05.199Z,31.40
2019-01-18T04:04:37.101Z,35.57
2019-01-18T04:07:05.357Z,35.83
2019-01-18T04:09:33.650Z,32.97
2019-01-18T04:12:01.989Z,38.83
2019-01-18T04:14:30.746Z,34.97
2019-01-18T04:16:59.094Z,38.17
2019-01-18T04:19:28.272Z,37.37
2019-01-18T04:21:56.541Z,35.27
2019-01-18T04:24:24.846Z,38.17
2019-01-18T04:26:53.110Z,42.90
2019-01-18T04:29:21.385Z,38.30
2019-01-18T04:31:50.108Z,39.93
2019-01-18T04:34:18.453Z,35.30
2019-01-18T04:36:46.809Z,41.97
2019-01-18T04:39:15.081Z,40.40
2019-01-18T04:41:43.566Z,39.20
2019-01-18T04:44:11.861Z,35.77
2019-01-18T04:46:40.190Z,35.43
2019-01-18T04:49:08.494Z,36.27
2019-01-18T04:51:36.934Z,43.57
2019-01-18T04:54:05.212Z,36.53
2019-01-18T04:56:33.499Z,37.20
2019-01-18T04:59:01.897Z,37.53
2019-01-18T05:01:30.193Z,33.70
2019-01-18T05:03:58.538Z,35.63
2019-01-18T05:06:26.905Z,40.17
2019-01-18T05:08:55.177Z,46.47
2019-01-18T05:11:23.480Z,41.43
2019-01-18T05:13:51.767Z,43.73
2019-01-18T05:16:20.051Z,46.70
2019-01-18T05:18:48.317Z,46.60
2019-01-18T05:21:16.674Z,45.10
2019-01-18T05:23:44.946Z,51.17
2019-01-18T05:26:13.211Z,42.40
2019-01-18T05:28:47.221Z,50.33
2019-01-18T05:31:15.729Z,41.67
2019-01-18T05:33:44.130Z,48.77
2019-01-18T05:36:12.394Z,37.80
2019-01-18T05:38:41.599Z,36.67
2019-01-18T05:41:09.976Z,51.33
2019-01-18T05:43:38.262Z,47.33
2019-01-18T05:46:06.526Z,44.10
2019-01-18T05:48:34.830Z,49.20
2019-01-18T05:51:03.155Z,43.70
2019-01-18T05:53:31.454Z,35.93
2019-01-18T05:56:00.099Z,41.50
2019-01-18T05:58:28.490Z,31.97
2019-01-18T06:00:56.963Z,41.60
2019-01-18T06:03:25.505Z,39.17
2019-01-18T06:05:53.767Z,43.03
2019-01-18T06:08:22.040Z,58.17
2019-01-18T06:10:50.325Z,43.37
2019-01-18T06:13:18.618Z,50.70
2019-01-18T06:15:46.882Z,41.43
2019-01-18T06:18:15.145Z,51.13
2019-01-18T06:20:43.448Z,47.33
2019-01-18T06:23:11.856Z,46.13
2019-01-18T06:25:41.430Z,45.50
2019-01-18T06:28:09.707Z,43.77
2019-01-18T06:30:38.139Z,47.60
2019-01-18T06:33:06.395Z,49.87
2019-01-18T06:35:35.073Z,41.93
2019-01-18T06:38:03.500Z,50.40
2019-01-18T06:40:32.037Z,45.40
2019-01-18T06:43:00.554Z,40.97
2019-01-18T06:45:29.627Z,43.27
2019-01-18T06:47:57.963Z,44.50
2019-01-18T06:50:26.261Z,48.60
2019-01-18T06:52:54.608Z,41.87
2019-01-18T06:55:22.917Z,39.67
2019-01-18T06:57:51.184Z,58.57
2019-01-18T07:00:21.030Z,60.80
2019-01-18T07:02:49.464Z,42.50
2019-01-18T07:05:17.850Z,44.40
2019-01-18T07:07:46.295Z,37.23
2019-01-18T07:10:20.826Z,43.00
2019-01-18T07:12:48.721Z,46.00
2019-01-18T07:15:17.106Z,56.07
2019-01-18T07:17:45.557Z,46.73
2019-01-18T07:20:15.415Z,51.90
2019-01-18T07:22:43.773Z,42.57
2019-01-18T07:25:14.420Z,46.30
2019-01-18T07:27:42.811Z,43.87
2019-01-18T07:30:12.626Z,40.90
2019-01-18T07:32:40.973Z,46.07
2019-01-18T07:35:09.243Z,45.00
2019-01-18T07:37:37.630Z,43.70
2019-01-18T07:40:07.330Z,41.67
2019-01-18T07:42:35.620Z,38.63
2019-01-18T07:45:08.214Z,36.03
2019-01-18T07:47:36.576Z,48.40
2019-01-18T07:50:06.525Z,40.37
2019-01-18T07:52:34.902Z,44.20
2019-01-18T07:55:08.948Z,47.23
2019-01-18T07:57:37.381Z,51.90
2019-01-18T08:00:10.078Z,70.07
2019-01-18T08:02:38.428Z,59.43
2019-01-18T08:05:07.661Z,46.20
2019-01-18T08:07:36.030Z,61.03
2019-01-18T08:10:23.642Z,56.47
2019-01-18T08:13:11.278Z,54.90
2019-01-18T08:15:58.876Z,74.13
2019-01-18T08:18:46.514Z,51.77
2019-01-18T08:21:34.126Z,53.97
2019-01-18T08:24:21.769Z,46.53
2019-01-18T08:27:09.420Z,45.33
2019-01-18T08:29:57.061Z,62.43
2019-01-18T08:32:44.670Z,52.53
2019-01-18T08:35:32.309Z,53.50
2019-01-18T08:38:39.797Z,50.27
2019-01-18T08:41:28.150Z,53.77
2019-01-18T08:44:15.813Z,53.87
2019-01-18T08:47:03.454Z,50.73
2019-01-18T08:49:51.153Z,51.27
2019-01-18T08:52:58.703Z,54.53
2019-01-18T08:58:16.695Z,52.33
2019-01-18T09:00:55.268Z,50.20
2019-01-18T09:06:46.782Z,47.07
2019-01-18T09:25:44.241Z,52.50
2019-01-18T09:31:35.289Z,45.77
2019-01-18T09:42:46.443Z,46.97
2019-01-18T09:51:18.489Z,43.87
2019-01-18T09:56:59.945Z,44.07
2019-01-18T09:59:28.218Z,45.50
2019-01-18T10:01:56.531Z,46.23
2019-01-18T10:04:24.983Z,47.13
2019-01-18T10:06:53.531Z,49.30
2019-01-18T10:09:21.878Z,52.70
2019-01-18T10:11:50.173Z,55.13
2019-01-18T10:14:18.431Z,49.13
2019-01-18T10:16:46.759Z,57.80
2019-01-18T10:19:15.075Z,42.60
2019-01-18T10:21:43.431Z,39.53
2019-01-18T10:24:11.729Z,49.77
2019-01-18T10:26:40.009Z,44.07
2019-01-18T10:29:08.399Z,44.00
2019-01-18T10:31:36.749Z,50.23
2019-01-18T10:34:05.045Z,53.33
2019-01-18T10:36:34.429Z,50.00
2019-01-18T10:39:04.326Z,47.00
2019-01-18T10:41:32.594Z,53.13
2019-01-18T10:44:05.944Z,46.13
2019-01-18T10:46:30.941Z,49.13
2019-01-18T10:48:59.245Z,51.77
2019-01-18T10:51:27.570Z,52.27
2019-01-18T10:53:55.870Z,49.20
2019-01-18T10:56:24.306Z,51.53
2019-01-18T10:58:52.586Z,49.50
2019-01-18T11:01:20.859Z,47.63
2019-01-18T11:03:49.195Z,53.10
2019-01-18T11:06:17.535Z,50.40
2019-01-18T11:08:45.862Z,57.63
2019-01-18T11:11:14.138Z,54.23
2019-01-18T11:13:42.433Z,61.10
2019-01-18T11:16:10.713Z,100.77
2019-01-18T11:18:39.031Z,121.53
2019-01-18T11:21:07.401Z,128.00
2019-01-18T11:23:35.792Z,121.13
2019-01-18T11:26:04.103Z,184.83
2019-01-18T11:28:32.394Z,153.43
2019-01-18T11:31:00.747Z,153.37
2019-01-18T11:33:29.120Z,208.33
2019-01-18T11:35:57.499Z,178.70
2019-01-18T11:38:25.762Z,135.40
2019-01-18T11:40:54.088Z,83.17
2019-01-18T11:43:22.372Z,101.37
2019-01-18T11:45:50.661Z,108.70
2019-01-18T11:48:18.979Z,116.17
2019-01-18T11:50:47.278Z,97.03
2019-01-18T11:53:15.551Z,113.13
2019-01-18T11:55:43.963Z,72.53
2019-01-18T11:58:12.290Z,97.03
2019-01-18T12:00:40.621Z,73.90
2019-01-18T12:03:08.915Z,135.60
2019-01-18T12:05:37.346Z,101.40
2019-01-18T12:08:05.770Z,125.30
2019-01-18T12:10:34.144Z,71.30
2019-01-18T12:13:02.604Z,93.13
2019-01-18T12:15:30.959Z,68.23
2019-01-18T12:17:59.238Z,86.23
2019-01-18T12:20:28.629Z,76.60
2019-01-18T12:22:57.067Z,105.87
2019-01-18T12:25:25.437Z,86.37
2019-01-18T12:27:53.765Z,96.47
2019-01-18T12:30:23.494Z,95.40
2019-01-18T12:32:51.841Z,82.90
2019-01-18T12:35:20.109Z,78.37
2019-01-18T12:37:48.394Z,87.43
2019-01-18T12:40:18.725Z,68.17
2019-01-18T12:42:47.038Z,100.20
2019-01-18T12:45:16.482Z,79.33
2019-01-18T12:47:44.846Z,59.43
2019-01-18T12:50:20.621Z,51.67
2019-01-18T12:52:49.012Z,48.30
2019-01-18T12:55:17.278Z,57.53
2019-01-18T12:57:45.637Z,94.77
2019-01-18T13:00:15.387Z,60.67
2019-01-18T13:02:44.049Z,82.60
2019-01-18T13:05:14.100Z,96.50
2019-01-18T13:07:42.479Z,92.57
2019-01-18T13:10:12.256Z,50.37
2019-01-18T13:12:40.862Z,60.43
2019-01-18T13:15:10.677Z,65.93
2019-01-18T13:17:38.970Z,73.40
2019-01-18T13:20:08.844Z,54.77
2019-01-18T13:22:37.197Z,97.13
2019-01-18T13:25:07.005Z,90.80
2019-01-18T13:27:35.374Z,102.13
2019-01-18T13:30:05.251Z,116.77
2019-01-18T13:32:33.633Z,77.67
2019-01-18T13:35:02.015Z,85.20
2019-01-18T13:37:30.392Z,73.53
2019-01-18T13:39:58.702Z,116.87
2019-01-18T13:42:26.994Z,96.13
2019-01-18T13:44:55.283Z,61.97
2019-01-18T13:47:23.972Z,92.20
2019-01-18T13:49:52.355Z,85.57
2019-01-18T13:52:20.641Z,67.40
2019-01-18T13:54:49.007Z,82.13
2019-01-18T13:57:17.275Z,83.33
2019-01-18T13:59:45.674Z,83.37
2019-01-18T14:02:14.078Z,85.77
2019-01-18T14:04:42.404Z,82.90
2019-01-18T14:07:10.802Z,104.70
2019-01-18T14:09:39.167Z,99.83
2019-01-18T14:12:08.221Z,76.87
2019-01-18T14:14:36.621Z,82.53
2019-01-18T14:17:04.876Z,103.73
2019-01-18T14:19:33.271Z,82.23
2019-01-18T14:22:01.600Z,79.87
2019-01-18T14:24:29.909Z,92.07
2019-01-18T14:26:58.270Z,133.80
2019-01-18T14:29:26.632Z,97.57
2019-01-18T14:31:54.998Z,105.53
2019-01-18T14:34:23.324Z,91.67
2019-01-18T14:36:51.682Z,118.87
2019-01-18T14:39:19.965Z,121.90
2019-01-18T14:41:48.274Z,129.57
2019-01-18T14:44:16.646Z,150.40
2019-01-18T14:46:44.968Z,176.70
2019-01-18T14:49:13.294Z,96.30
2019-01-18T14:51:41.673Z,108.07
2019-01-18T14:54:09.994Z,137.17
2019-01-18T14:56:38.400Z,256.70
2019-01-18T14:59:06.759Z,152.07
2019-01-18T15:01:35.073Z,190.97
2019-01-18T15:04:03.430Z,117.50
2019-01-18T15:06:32.763Z,125.13
2019-01-18T15:09:01.101Z,114.13
2019-01-18T15:11:29.584Z,130.53
2019-01-18T15:13:57.881Z,95.27
2019-01-18T15:16:26.159Z,309.73
2019-01-18T15:18:54.471Z,181.30
2019-01-18T15:21:22.923Z,317.90
2019-01-18T15:23:51.225Z,211.90
2019-01-18T15:26:19.500Z,396.13
2019-01-18T15:28:47.804Z,359.87
2019-01-18T15:31:16.079Z,340.27
2019-01-18T15:33:44.397Z,129.33
2019-01-18T15:36:12.758Z,180.67
2019-01-18T15:38:41.053Z,106.37
2019-01-18T15:41:09.400Z,143.40
2019-01-18T15:43:37.802Z,50.80
2019-01-18T15:46:06.133Z,49.23
2019-01-18T15:48:34.448Z,60.37
2019-01-18T15:51:02.722Z,44.80
2019-01-18T15:53:31.201Z,39.67
2019-01-18T15:55:59.474Z,56.00
2019-01-18T15:58:27.802Z,78.47
2019-01-18T16:00:56.106Z,40.47
2019-01-18T16:03:24.572Z,44.30
2019-01-18T16:05:52.849Z,186.10
2019-01-18T16:08:21.186Z,178.60
2019-01-18T16:10:49.503Z,113.90
2019-01-18T16:13:17.918Z,155.17
2019-01-18T16:15:47.809Z,130.80
2019-01-18T16:18:17.670Z,174.33
2019-01-18T16:20:45.973Z,136.73
2019-01-18T16:23:14.246Z,126.23
2019-01-18T16:25:42.549Z,119.33
2019-01-18T16:28:10.910Z,191.83
2019-01-18T16:30:39.229Z,115.83
2019-01-18T16:33:07.566Z,243.70
2019-01-18T16:35:35.948Z,274.40
2019-01-18T16:38:05.486Z,390.47
2019-01-18T16:40:33.872Z,180.30
2019-01-18T16:43:15.866Z,152.23
2019-01-18T16:45:44.259Z,254.00
2019-01-18T16:48:12.596Z,144.53
2019-01-18T16:50:40.971Z,167.70
2019-01-18T16:53:09.309Z,142.67
2019-01-18T16:55:37.618Z,158.50
2019-01-18T16:58:06.074Z,88.33
2019-01-18T17:00:35.913Z,84.47
2019-01-18T17:03:04.278Z,76.03
2019-01-18T17:05:32.746Z,77.20
2019-01-18T17:08:01.151Z,68.83
2019-01-18T17:10:29.421Z,62.37
2019-01-18T17:12:57.744Z,97.33
2019-01-18T17:15:26.017Z,55.20
2019-01-18T17:17:54.432Z,48.53
2019-01-18T17:20:24.243Z,47.80
2019-01-18T17:22:52.542Z,60.67
2019-01-18T17:25:20.910Z,74.17
2019-01-18T17:27:49.478Z,77.90
2019-01-18T17:30:18.958Z,67.20
2019-01-18T17:32:47.429Z,75.47
2019-01-18T17:35:18.273Z,75.53
2019-01-18T17:37:51.358Z,70.63
2019-01-18T17:40:21.168Z,71.63
2019-01-18T17:43:02.933Z,53.80
2019-01-18T17:45:32.807Z,63.87
2019-01-18T17:48:02.688Z,57.60
2019-01-18T17:50:35.484Z,66.47
2019-01-18T17:53:05.388Z,71.60
2019-01-18T17:55:50.195Z,56.60
2019-01-18T17:58:36.665Z,54.13
2019-01-18T18:01:12.231Z,57.97
2019-01-18T18:03:54.263Z,52.47
2019-01-18T18:06:27.057Z,46.97
2019-01-18T18:09:02.739Z,52.53
2019-01-18T18:11:32.593Z,50.03
2019-01-18T18:14:08.419Z,53.50
2019-01-18T18:16:38.409Z,52.23
2019-01-18T18:19:17.214Z,51.63
2019-01-18T18:21:59.196Z,51.13
2019-01-18T18:24:32.028Z,52.27
2019-01-18T18:27:07.808Z,49.93
2019-01-18T18:29:37.622Z,53.03
2019-01-18T18:32:19.654Z,51.80
2019-01-18T18:34:49.491Z,50.67
2019-01-18T18:37:19.326Z,53.33
2019-01-18T18:42:49.918Z,54.67
2019-01-18T18:45:31.887Z,55.53
2019-01-18T18:48:07.397Z,57.77
2019-01-18T18:50:37.259Z,55.97
2019-01-18T18:53:13.036Z,50.43
2019-01-18T18:55:55.466Z,49.87
2019-01-18T18:58:29.513Z,55.67
2019-01-18T19:00:59.441Z,50.77
2019-01-18T19:03:45.988Z,56.07
2019-01-18T19:06:15.830Z,53.57
2019-01-18T19:08:51.842Z,58.90
2019-01-18T19:11:39.749Z,49.47
2019-01-18T19:14:12.412Z,53.43
2019-01-18T19:16:50.944Z,53.53
2019-01-18T19:19:26.619Z,53.10
2019-01-18T19:22:02.055Z,54.40
2019-01-18T19:24:31.887Z,56.47
2019-01-18T19:27:01.730Z,60.10
2019-01-18T19:29:34.339Z,59.93
2019-01-18T19:32:04.207Z,57.33
2019-01-18T19:34:40.266Z,73.80
2019-01-18T19:37:26.748Z,91.37
2019-01-18T19:40:11.673Z,63.33
2019-01-18T19:42:41.576Z,54.73
2019-01-18T19:45:11.479Z,55.77
2019-01-18T19:47:43.983Z,60.03
2019-01-18T19:50:25.697Z,55.47
2019-01-18T19:52:55.608Z,50.13
2019-01-18T19:55:34.392Z,51.83
2019-01-18T19:58:19.278Z,48.57
2019-01-18T20:00:52.021Z,46.17
2019-01-18T20:03:24.541Z,47.10
2019-01-18T20:06:12.491Z,47.10
2019-01-18T20:08:42.691Z,49.57
2019-01-18T20:11:18.289Z,50.13
2019-01-18T20:13:50.820Z,51.97
2019-01-18T20:16:20.649Z,49.13
2019-01-18T20:18:50.510Z,49.83
2019-01-18T20:21:26.360Z,55.87
2019-01-18T20:23:58.830Z,49.37
2019-01-18T20:26:37.701Z,49.13
2019-01-18T20:29:12.618Z,46.43
2019-01-18T20:31:48.202Z,49.57
2019-01-18T20:34:21.002Z,48.10
2019-01-18T20:37:02.885Z,46.60
2019-01-18T20:39:35.697Z,52.23
2019-01-18T20:42:23.645Z,47.87
2019-01-18T20:45:02.747Z,46.00
2019-01-18T20:47:44.351Z,45.87
2019-01-18T20:50:27.771Z,43.97
2019-01-18T20:52:57.632Z,49.37
2019-01-18T20:55:39.789Z,53.93
2019-01-18T20:58:09.670Z,48.80
2019-01-18T21:00:42.504Z,51.87
2019-01-18T21:03:12.439Z,48.37
2019-01-18T21:05:51.565Z,55.13
2019-01-18T21:08:37.954Z,52.77
2019-01-18T21:11:07.783Z,53.03
2019-01-18T21:13:37.639Z,52.33
2019-01-18T21:16:10.426Z,54.47
2019-01-18T21:18:58.438Z,55.00
2019-01-18T21:21:43.311Z,54.43
2019-01-18T21:24:31.301Z,47.67
2019-01-18T21:27:01.237Z,47.07
2019-01-18T21:29:33.899Z,47.80
2019-01-18T21:32:03.827Z,49.90
2019-01-18T21:34:36.399Z,47.77
2019-01-18T21:37:24.427Z,48.03
2019-01-18T21:39:54.313Z,43.90
2019-01-18T21:42:24.167Z,44.23
2019-01-18T21:45:10.741Z,44.90
2019-01-18T21:47:43.300Z,46.70
2019-01-18T21:50:15.988Z,46.90
2019-01-18T21:53:04.944Z,46.50
2019-01-18T21:55:40.818Z,46.83
2019-01-18T21:58:19.662Z,54.40
2019-01-18T22:01:06.168Z,45.53
2019-01-18T22:03:38.998Z,46.83
2019-01-18T22:06:11.910Z,45.07
2019-01-18T22:08:50.748Z,47.27
2019-01-18T22:11:23.660Z,47.17
2019-01-18T22:13:56.440Z,53.70
2019-01-18T22:16:42.702Z,46.10
2019-01-18T22:19:18.332Z,49.27
2019-01-18T22:21:50.854Z,48.40
2019-01-18T22:24:36.000Z,56.27
2019-01-18T22:27:11.504Z,50.33
2019-01-18T22:29:50.384Z,54.63
2019-01-18T22:32:20.190Z,47.63
2019-01-18T22:34:50.033Z,43.50
2019-01-18T22:37:23.908Z,46.67
2019-01-18T22:39:59.821Z,51.07
2019-01-18T22:42:44.877Z,44.20
2019-01-18T22:45:17.646Z,51.90
2019-01-18T22:48:03.976Z,51.57
2019-01-18T22:50:46.102Z,42.80
2019-01-18T22:53:21.928Z,48.67
2019-01-18T22:55:54.905Z,41.53
2019-01-18T22:58:30.926Z,43.43
2019-01-18T23:01:00.773Z,38.37
2019-01-18T23:03:42.824Z,46.73
2019-01-18T23:06:18.871Z,43.30
2019-01-18T23:09:05.289Z,42.73
2019-01-18T23:11:37.878Z,40.27
2019-01-18T23:14:07.721Z,40.27
2019-01-18T23:16:40.574Z,46.77
2019-01-18T23:19:10.392Z,41.30
2019-01-18T23:21:46.405Z,41.63
2019-01-18T23:24:22.009Z,38.93
2019-01-18T23:27:08.590Z,40.17
2019-01-18T23:29:38.417Z,37.37
2019-01-18T23:32:14.042Z,37.83
2019-01-18T23:34:43.896Z,37.67
2019-01-18T23:37:13.737Z,33.50
2019-01-18T23:39:43.558Z,40.57
2019-01-18T23:42:23.246Z,40.97
2019-01-18T23:45:04.949Z,41.30
2019-01-18T23:47:49.709Z,37.63
2019-01-18T23:50:28.252Z,40.13
2019-01-18T23:53:09.913Z,35.77
2019-01-18T23:55:42.644Z,38.77
2019-01-18T23:58:12.481Z,45.80
